Time;durP1;ratioP1;P1;durP2;ratioP2;P2;SDS_P1;SDS_P2;PMS_P1;PMS_P2;Temp;Humidity;BMP_temperature;BMP_pressure;BME280_temperature;BME280_humidity;BME280_pressure;Samples;Min_cycle;Max_cycle;Signal;HPM_P1;HPM_P2
2021/03/22 05:10:10;;;;;;;1.30;1.30;;;4.00;99.90;;;;;;5975280;23;20177;31
2021/03/22 05:12:38;;;;;;;1.30;1.30;;;4.00;99.90;;;;;;4935049;29;20273;-74
2021/03/22 05:15:06;;;;;;;1.33;1.33;;;4.10;99.90;;;;;;4936751;29;20206;-74
2021/03/22 05:17:33;;;;;;;1.20;1.20;;;4.10;99.90;;;;;;4936581;29;20257;-74
2021/03/22 05:20:01;;;;;;;1.20;1.20;;;4.10;99.90;;;;;;4936524;29;20214;-75
2021/03/22 05:22:27;;;;;;;1.40;1.40;;;4.20;99.90;;;;;;4935140;29;20281;-75
2021/03/22 05:24:54;;;;;;;1.30;1.30;;;4.40;99.90;;;;;;4936805;29;20280;-76
2021/03/22 05:27:21;;;;;;;1.40;1.40;;;4.30;99.90;;;;;;4936240;29;20214;-75
2021/03/22 05:29:49;;;;;;;1.20;1.20;;;4.40;99.90;;;;;;4936289;29;20629;-75
2021/03/22 05:32:30;;;;;;;1.30;1.30;;;4.50;99.90;;;;;;4936337;29;20640;-75
2021/03/22 05:34:58;;;;;;;1.20;1.20;;;;;;;;;;4936206;29;20683;-76
2021/03/22 05:37:25;;;;;;;1.10;1.10;;;4.40;99.90;;;;;;4936617;29;20209;-75
2021/03/22 05:39:52;;;;;;;1.10;1.10;;;4.50;99.90;;;;;;4936806;29;20230;-76
2021/03/22 05:42:37;;;;;;;1.40;1.40;;;4.60;99.90;;;;;;4936174;29;20699;-75
2021/03/22 05:45:17;;;;;;;1.30;1.30;;;4.60;99.90;;;;;;4936019;29;20213;-74
2021/03/22 05:47:52;;;;;;;1.30;1.30;;;4.70;99.90;;;;;;4935685;29;20209;-75
2021/03/22 05:50:22;;;;;;;1.23;1.23;;;4.80;99.90;;;;;;4934283;29;20292;-76
2021/03/22 05:53:07;;;;;;;1.17;1.17;;;4.80;99.90;;;;;;4923197;29;20206;-73
2021/03/22 05:55:47;;;;;;;1.20;1.20;;;4.80;99.90;;;;;;4926446;29;20551;-75
2021/03/22 05:58:42;;;;;;;1.20;1.20;;;4.80;99.90;;;;;;4935228;29;20222;-74
2021/03/22 06:01:30;;;;;;;1.27;1.27;;;4.80;99.90;;;;;;4935526;29;20237;-73
2021/03/22 06:04:02;;;;;;;1.20;1.20;;;4.60;99.90;;;;;;4935349;29;20217;-74
2021/03/22 06:06:33;;;;;;;1.20;1.20;;;4.50;99.90;;;;;;4935307;29;20618;-74
2021/03/22 06:09:05;;;;;;;1.37;1.37;;;4.60;99.90;;;;;;4935550;29;20197;-75
2021/03/22 06:11:47;;;;;;;1.27;1.27;;;4.60;99.90;;;;;;4935200;29;20284;-73
2021/03/22 06:14:22;;;;;;;1.30;1.30;;;4.60;99.90;;;;;;4935385;29;20552;-77
2021/03/22 06:17:00;;;;;;;1.30;1.30;;;4.70;99.90;;;;;;4935290;29;20219;-73
2021/03/22 06:19:43;;;;;;;1.20;1.20;;;4.70;99.90;;;;;;4934505;29;20232;-74
2021/03/22 06:22:20;;;;;;;1.20;1.20;;;4.80;99.90;;;;;;4933070;29;20229;-75
2021/03/22 06:24:47;;;;;;;1.53;1.53;;;;;;;;;;4927675;29;20202;-75
2021/03/22 06:27:15;;;;;;;1.20;1.20;;;4.90;99.90;;;;;;4935319;29;20256;-75
2021/03/22 06:29:43;;;;;;;1.27;1.27;;;;;;;;;;4933337;29;20206;-75
2021/03/22 06:32:20;;;;;;;1.10;1.10;;;5.00;99.90;;;;;;4934552;29;20277;-76
2021/03/22 06:34:53;;;;;;;1.10;1.10;;;5.20;99.90;;;;;;4934655;29;20205;-75
2021/03/22 06:37:24;;;;;;;1.20;1.20;;;5.40;99.90;;;;;;4935251;29;20214;-75
2021/03/22 06:40:09;;;;;;;1.30;1.30;;;5.40;99.90;;;;;;4934887;29;20423;-75
2021/03/22 06:42:36;;;;;;;1.40;1.40;;;5.10;99.90;;;;;;4935288;29;20281;-74
2021/03/22 06:45:25;;;;;;;1.30;1.30;;;5.20;99.90;;;;;;4934671;29;20242;-75
2021/03/22 06:48:16;;;;;;;1.10;1.10;;;5.40;99.90;;;;;;4935010;29;20262;-74
2021/03/22 06:50:44;;;;;;;1.40;1.40;;;5.00;99.90;;;;;;4934874;29;20230;-75
2021/03/22 06:53:11;;;;;;;1.20;1.20;;;5.40;99.90;;;;;;4935223;29;20206;-75
2021/03/22 06:55:41;;;;;;;1.27;1.27;;;5.50;99.90;;;;;;4934829;29;20210;-75
2021/03/22 06:58:24;;;;;;;1.30;1.30;;;5.40;99.90;;;;;;4934970;29;20273;-75
2021/03/22 07:00:52;;;;;;;1.30;1.30;;;5.50;99.90;;;;;;4935219;29;20281;-75
2021/03/22 07:03:25;;;;;;;1.17;1.17;;;5.50;99.90;;;;;;4934759;29;20202;-75
2021/03/22 07:05:52;;;;;;;1.20;1.20;;;5.40;99.90;;;;;;4934808;29;20261;-75
2021/03/22 07:08:38;;;;;;;1.10;1.10;;;5.40;99.90;;;;;;4934954;29;20206;-75
2021/03/22 07:11:08;;;;;;;1.23;1.23;;;5.60;99.90;;;;;;4934460;29;20788;-75
2021/03/22 07:13:36;;;;;;;1.40;1.40;;;5.50;99.90;;;;;;4934392;29;20588;-75
2021/03/22 07:16:17;;;;;;;1.40;1.40;;;5.50;99.90;;;;;;4934625;29;20292;-75
2021/03/22 07:19:04;;;;;;;1.20;1.20;;;5.50;99.90;;;;;;4934261;29;20226;-75
2021/03/22 07:21:33;;;;;;;1.10;1.10;;;5.80;99.90;;;;;;4934706;29;20229;-74
2021/03/22 07:24:10;;;;;;;1.30;1.30;;;5.70;99.90;;;;;;4934214;29;20624;-74
2021/03/22 07:26:52;;;;;;;1.30;1.30;;;5.50;99.90;;;;;;4934046;29;20685;-74
2021/03/22 07:29:31;;;;;;;1.50;1.50;;;5.50;99.90;;;;;;4934139;29;20682;-74
2021/03/22 07:32:05;;;;;;;1.30;1.30;;;5.50;99.90;;;;;;4934194;29;20226;-74
2021/03/22 07:34:45;;;;;;;1.20;1.20;;;5.60;99.90;;;;;;4934426;29;20264;-74
2021/03/22 07:37:25;;;;;;;1.30;1.30;;;5.70;99.90;;;;;;4934087;29;20697;-74
2021/03/22 07:39:55;;;;;;;1.50;1.50;;;5.70;99.90;;;;;;4934043;29;20229;-75
2021/03/22 07:42:41;;;;;;;1.20;1.20;;;5.90;99.90;;;;;;4934105;29;20226;-74
2021/03/22 07:45:36;;;;;;;1.10;1.10;;;5.80;99.90;;;;;;4932922;29;20690;-75
2021/03/22 07:48:42;;;;;;;1.20;1.20;;;5.60;99.90;;;;;;4921037;29;20237;-75
2021/03/22 07:51:31;;;;;;;1.17;1.17;;;5.80;99.90;;;;;;4918292;29;20281;-75
2021/03/22 07:54:05;;;;;;;1.20;1.20;;;5.70;99.90;;;;;;4934070;29;20584;-74
2021/03/22 07:56:41;;;;;;;1.30;1.30;;;5.60;99.90;;;;;;4933937;29;20210;-74
2021/03/22 07:59:20;;;;;;;1.17;1.17;;;5.70;99.90;;;;;;4933833;29;20229;-75
2021/03/22 08:01:59;;;;;;;1.20;1.20;;;6.10;99.90;;;;;;4933820;29;20280;-74
2021/03/22 08:04:41;;;;;;;1.17;1.17;;;5.80;99.90;;;;;;4934037;29;20205;-75
2021/03/22 08:07:32;;;;;;;1.00;1.00;;;5.90;99.90;;;;;;4933922;29;20631;-75
2021/03/22 08:10:17;;;;;;;1.20;1.20;;;6.00;99.90;;;;;;4933728;29;20205;-75
2021/03/22 08:12:51;;;;;;;1.13;1.13;;;6.20;99.90;;;;;;4934108;29;20575;-74
2021/03/22 08:15:27;;;;;;;1.10;1.10;;;6.30;99.90;;;;;;4933866;29;20349;-75
2021/03/22 08:18:02;;;;;;;1.20;1.20;;;6.50;99.90;;;;;;4934170;29;20209;-74
2021/03/22 08:20:34;;;;;;;1.20;1.20;;;6.60;99.90;;;;;;4933963;29;20202;-75
2021/03/22 08:23:12;;;;;;;1.10;1.10;;;6.80;99.90;;;;;;4934150;29;20210;-75
2021/03/22 08:25:43;;;;;;;1.10;1.10;;;6.80;99.90;;;;;;4933795;29;20206;-75
2021/03/22 08:28:22;;;;;;;1.10;1.10;;;6.80;99.90;;;;;;4933794;29;20203;-75
2021/03/22 08:31:01;;;;;;;1.17;1.17;;;7.00;99.90;;;;;;4933479;29;20229;-75
2021/03/22 08:33:34;;;;;;;1.10;1.10;;;7.20;99.90;;;;;;4933868;29;20264;-75
2021/03/22 08:36:18;;;;;;;1.40;1.40;;;7.00;99.90;;;;;;4933672;29;20807;-75
2021/03/22 08:38:50;;;;;;;1.30;1.30;;;7.30;99.90;;;;;;4933703;29;20229;-74
2021/03/22 08:41:29;;;;;;;1.20;1.20;;;7.20;99.90;;;;;;4933423;29;20237;-76
2021/03/22 08:44:02;;;;;;;1.20;1.20;;;7.70;99.90;;;;;;4933686;29;20261;-74
2021/03/22 08:46:36;;;;;;;1.10;1.10;;;6.90;99.90;;;;;;4933454;29;20214;-74
2021/03/22 08:49:19;;;;;;;1.00;1.00;;;6.90;99.90;;;;;;4933634;29;20662;-74
2021/03/22 08:51:56;;;;;;;0.90;0.90;;;7.00;99.90;;;;;;4932884;29;20229;-74
2021/03/22 08:54:27;;;;;;;1.30;1.30;;;7.10;99.90;;;;;;4934139;29;20269;-75
2021/03/22 08:57:02;;;;;;;1.10;1.10;;;7.10;99.90;;;;;;4936605;29;20257;-75
2021/03/22 08:59:29;;;;;;;1.10;1.10;;;;;;;;;;4937784;29;20293;-74
2021/03/22 09:02:16;;;;;;;1.10;1.10;;;7.30;99.90;;;;;;4937701;29;20222;-75
2021/03/22 09:04:44;;;;;;;1.10;1.10;;;6.90;99.90;;;;;;4937562;29;20217;-75
2021/03/22 09:07:28;;;;;;;1.10;1.10;;;7.10;99.90;;;;;;4937669;29;20265;-75
2021/03/22 09:10:36;;;;;;;1.03;1.03;;;7.10;99.90;;;;;;4937630;29;20256;-74
2021/03/22 09:13:22;;;;;;;1.10;1.10;;;7.30;99.90;;;;;;4937627;29;20209;-76
2021/03/22 09:16:05;;;;;;;1.10;1.10;;;7.50;99.90;;;;;;4937324;29;20217;-75
2021/03/22 09:18:33;;;;;;;1.23;1.23;;;7.60;99.90;;;;;;4937223;29;20687;-75
2021/03/22 09:21:20;;;;;;;1.13;1.13;;;7.50;99.90;;;;;;4937019;29;20309;-75
2021/03/22 09:23:48;;;;;;;1.30;1.30;;;7.80;99.90;;;;;;4937381;29;20233;-74
2021/03/22 09:26:16;;;;;;;1.00;1.00;;;7.90;99.90;;;;;;4937054;29;20206;-75
2021/03/22 09:29:13;;;;;;;1.07;1.07;;;7.70;99.90;;;;;;4937122;29;20209;-75
2021/03/22 09:31:45;;;;;;;1.10;1.10;;;7.80;99.90;;;;;;4936914;29;20253;-75
2021/03/22 09:34:38;;;;;;;1.10;1.10;;;7.90;99.90;;;;;;4937156;29;20210;-75
2021/03/22 09:37:45;;;;;;;1.00;1.00;;;7.90;99.90;;;;;;4936887;29;20342;-75
2021/03/22 09:40:47;;;;;;;1.00;1.00;;;8.00;99.90;;;;;;4936976;29;20241;-75
2021/03/22 09:43:32;;;;;;;1.00;1.00;;;8.00;99.90;;;;;;4936900;29;20206;-75
2021/03/22 09:46:34;;;;;;;1.00;1.00;;;8.10;99.90;;;;;;4936557;29;20202;-75
2021/03/22 09:49:21;;;;;;;1.02;1.02;;;8.00;99.90;;;;;;4936695;29;20544;-76
2021/03/22 09:51:52;;;;;;;1.10;1.10;;;7.80;99.90;;;;;;4936696;29;20234;-76
2021/03/22 09:54:46;;;;;;;1.10;1.10;;;7.80;99.90;;;;;;4936563;29;20590;-75
2021/03/22 09:57:43;;;;;;;1.07;1.07;;;7.50;99.90;;;;;;4936696;29;20254;-75
2021/03/22 10:00:47;;;;;;;1.20;1.20;;;7.50;99.90;;;;;;4936548;29;20230;-75
2021/03/22 10:03:37;;;;;;;1.00;1.00;;;7.60;99.90;;;;;;4936538;29;20667;-75
2021/03/22 10:06:28;;;;;;;1.30;1.30;;;7.60;99.90;;;;;;4936008;29;20205;-75
2021/03/22 10:08:56;;;;;;;1.00;1.00;;;7.60;99.90;;;;;;4935589;29;20210;-75
2021/03/22 10:11:28;;;;;;;1.02;1.02;;;7.40;99.90;;;;;;4936339;29;20237;-75
2021/03/22 10:13:59;;;;;;;0.90;0.90;;;7.60;99.90;;;;;;4936236;29;20257;-75
2021/03/22 10:16:31;;;;;;;1.05;1.05;;;7.70;99.90;;;;;;4936007;29;20261;-75
2021/03/22 10:19:01;;;;;;;1.17;1.17;;;8.00;99.90;;;;;;4936188;29;20225;-75
2021/03/22 10:21:32;;;;;;;1.25;1.25;;;8.00;99.90;;;;;;4936240;29;20595;-75
2021/03/22 10:24:05;;;;;;;1.00;1.00;;;8.40;99.90;;;;;;4936103;29;20266;-75
2021/03/22 10:26:38;;;;;;;1.05;1.05;;;8.30;99.90;;;;;;4935961;29;20214;-75
2021/03/22 10:29:14;;;;;;;1.30;1.30;;;8.40;99.90;;;;;;4936043;29;20660;-75
2021/03/22 10:31:42;;;;;;;1.10;1.10;;;8.30;99.50;;;;;;4935685;29;20221;-74
2021/03/22 10:34:22;;;;;;;1.00;1.00;;;8.70;98.30;;;;;;4936051;29;20228;-75
2021/03/22 10:36:50;;;;;;;1.20;1.20;;;8.20;99.90;;;;;;4935632;29;20607;-75
2021/03/22 10:39:25;;;;;;;1.27;1.27;;;8.50;99.90;;;;;;4935854;29;20457;-75
2021/03/22 10:41:52;;;;;;;0.90;0.90;;;8.10;99.90;;;;;;4935691;29;20261;-74
2021/03/22 10:44:25;;;;;;;1.15;1.15;;;8.40;99.90;;;;;;4939516;29;20265;-74
2021/03/22 10:47:05;;;;;;;1.10;1.10;;;8.60;99.90;;;;;;4936305;29;20214;-72
2021/03/22 10:49:32;;;;;;;1.10;1.10;;;8.20;99.90;;;;;;4935675;29;20622;-72
2021/03/22 10:52:01;;;;;;;1.00;1.00;;;8.10;99.90;;;;;;4935663;29;20222;-72
2021/03/22 10:54:43;;;;;;;1.00;1.00;;;8.00;98.90;;;;;;4935573;29;20206;-73
2021/03/22 10:57:17;;;;;;;1.00;1.00;;;8.00;94.10;;;;;;4935736;29;20410;-72
2021/03/22 10:59:48;;;;;;;1.00;1.00;;;8.10;99.90;;;;;;4935657;29;20225;-72
2021/03/22 11:02:33;;;;;;;1.13;1.13;;;8.00;99.60;;;;;;4935304;29;20234;-72
2021/03/22 11:05:05;;;;;;;1.10;1.10;;;7.70;99.60;;;;;;4935118;29;20210;-73
2021/03/22 11:07:33;;;;;;;1.03;1.03;;;8.00;99.90;;;;;;4935411;29;20568;-73
2021/03/22 11:10:16;;;;;;;1.10;1.10;;;8.10;93.40;;;;;;4935434;29;20206;-73
2021/03/22 11:12:45;;;;;;;1.10;1.10;;;8.10;97.50;;;;;;4935395;29;20264;-73
2021/03/22 11:15:17;;;;;;;1.20;1.20;;;8.00;99.90;;;;;;4935071;29;20209;-72
2021/03/22 11:17:46;;;;;;;1.07;1.07;;;8.20;99.90;;;;;;4935772;29;20218;-72
2021/03/22 11:20:16;;;;;;;1.10;1.10;;;8.20;99.90;;;;;;4935545;29;20222;-73
2021/03/22 11:22:46;;;;;;;1.00;1.00;;;8.10;93.00;;;;;;4935363;29;20209;-73
2021/03/22 11:25:36;;;;;;;1.10;1.10;;;8.00;99.90;;;;;;4935402;29;20300;-75
2021/03/22 11:28:07;;;;;;;1.00;1.00;;;8.30;99.90;;;;;;4935171;29;20208;-75
2021/03/22 11:30:37;;;;;;;1.10;1.10;;;8.40;99.90;;;;;;4935273;29;20277;-75
2021/03/22 11:33:12;;;;;;;1.05;1.05;;;8.30;99.90;;;;;;4935098;29;20555;-75
2021/03/22 11:35:39;;;;;;;1.05;1.05;;;8.50;99.90;;;;;;4936988;29;20216;-74
2021/03/22 11:38:24;;;;;;;1.00;1.00;;;8.50;99.90;;;;;;4938381;29;20217;-75
2021/03/22 11:40:51;;;;;;;1.00;1.00;;;;;;;;;;4934899;29;20654;-74
2021/03/22 11:43:28;;;;;;;1.00;1.00;;;8.80;99.90;;;;;;4934701;29;20671;-76
2021/03/22 11:45:55;;;;;;;0.90;0.90;;;8.80;99.90;;;;;;4934695;29;20640;-76
2021/03/22 11:48:37;;;;;;;1.00;1.00;;;8.70;99.90;;;;;;4934678;29;20210;-76
2021/03/22 11:51:08;;;;;;;0.90;0.90;;;9.10;99.90;;;;;;4935075;29;20233;-76
2021/03/22 11:54:04;;;;;;;0.80;0.80;;;8.90;99.50;;;;;;4934868;29;20209;-76
2021/03/22 11:56:34;;;;;;;1.00;1.00;;;9.00;99.90;;;;;;4934856;29;20261;-75
2021/03/22 11:59:22;;;;;;;1.00;1.00;;;9.10;99.90;;;;;;4934811;29;20316;-75
2021/03/22 12:02:27;;;;;;;1.00;1.00;;;9.10;99.90;;;;;;4930705;29;20229;-75
2021/03/22 12:04:58;;;;;;;0.90;0.90;;;8.90;99.90;;;;;;4925597;29;20206;-75
2021/03/22 12:07:41;;;;;;;1.00;1.00;;;9.50;99.90;;;;;;4934642;29;20740;-76
2021/03/22 12:10:24;;;;;;;1.30;1.30;;;9.10;91.40;;;;;;4934822;29;20209;-74
2021/03/22 12:12:51;;;;;;;1.00;1.00;;;9.50;98.20;;;;;;4934739;29;20202;-75
2021/03/22 12:15:19;;;;;;;0.90;0.90;;;9.40;98.30;;;;;;4934472;29;20209;-75
2021/03/22 12:17:55;;;;;;;0.98;0.98;;;9.30;98.60;;;;;;4934536;29;20300;-75
2021/03/22 12:20:25;;;;;;;1.20;1.20;;;9.40;98.00;;;;;;4934407;29;20703;-74
2021/03/22 12:22:52;;;;;;;0.90;0.90;;;9.50;96.90;;;;;;4934363;29;20624;-76
2021/03/22 12:25:22;;;;;;;1.00;1.00;;;9.70;83.60;;;;;;4934253;29;20210;-75
2021/03/22 12:27:51;;;;;;;0.90;0.90;;;9.70;97.40;;;;;;4934488;29;20553;-76
2021/03/22 12:30:20;;;;;;;0.93;0.93;;;9.70;96.20;;;;;;4934350;29;20695;-75
2021/03/22 12:32:48;;;;;;;1.00;1.00;;;9.60;96.40;;;;;;4937777;29;20265;-75
2021/03/22 12:35:17;;;;;;;0.90;0.90;;;9.60;91.00;;;;;;4938141;29;20305;-75
2021/03/22 12:37:44;;;;;;;1.00;1.00;;;9.60;97.70;;;;;;4937986;29;20672;-76
2021/03/22 12:40:13;;;;;;;1.00;1.00;;;9.30;90.10;;;;;;4937871;29;20221;-75
2021/03/22 12:42:43;;;;;;;1.00;1.00;;;9.60;98.60;;;;;;4938264;29;20242;-76
2021/03/22 12:45:20;;;;;;;1.00;1.00;;;9.10;98.70;;;;;;4937631;29;20202;-76
2021/03/22 12:47:47;;;;;;;0.90;0.90;;;;;;;;;;4938039;29;20206;-75
2021/03/22 12:50:19;;;;;;;0.90;0.90;;;9.30;97.00;;;;;;4937752;29;20697;-76
2021/03/22 12:52:48;;;;;;;1.05;1.05;;;9.30;97.80;;;;;;4937804;29;20205;-75
2021/03/22 12:55:15;;;;;;;1.00;1.00;;;9.40;97.10;;;;;;4937576;29;20206;-76
2021/03/22 12:57:43;;;;;;;0.90;0.90;;;9.50;96.00;;;;;;4937675;29;20205;-75
2021/03/22 13:00:12;;;;;;;1.00;1.00;;;9.70;95.40;;;;;;4938217;29;20234;-75
2021/03/22 13:02:40;;;;;;;0.80;0.80;;;10.20;95.10;;;;;;4937839;29;20209;-75
2021/03/22 13:05:15;;;;;;;0.90;0.90;;;9.90;81.40;;;;;;4937539;29;20210;-74
2021/03/22 13:07:42;;;;;;;0.95;0.95;;;10.00;85.50;;;;;;4937614;29;20205;-75
2021/03/22 13:10:10;;;;;;;0.90;0.90;;;10.00;95.70;;;;;;4937448;29;20206;-75
2021/03/22 13:12:37;;;;;;;0.90;0.90;;;10.00;93.30;;;;;;4937852;29;20213;-76
2021/03/22 13:15:09;;;;;;;0.90;0.90;;;9.60;92.70;;;;;;4937520;29;20214;-76
2021/03/22 13:17:36;;;;;;;0.80;0.80;;;9.60;87.20;;;;;;4937584;29;20265;-75
2021/03/22 13:20:07;;;;;;;1.00;1.00;;;9.70;77.30;;;;;;4937338;29;20222;-75
2021/03/22 13:22:33;;;;;;;1.02;1.02;;;9.50;94.20;;;;;;4937238;29;20711;-76
2021/03/22 13:25:13;;;;;;;0.90;0.90;;;9.50;79.60;;;;;;4937356;29;20213;-76
2021/03/22 13:27:40;;;;;;;1.00;1.00;;;9.40;83.50;;;;;;4937415;29;20210;-76
2021/03/22 13:30:12;;;;;;;1.00;1.00;;;9.50;94.30;;;;;;4937310;29;20249;-76
2021/03/22 13:32:39;;;;;;;1.00;1.00;;;9.60;90.90;;;;;;4937219;29;20269;-75
2021/03/22 13:35:08;;;;;;;0.90;0.90;;;10.10;92.60;;;;;;4937273;29;20554;-75
2021/03/22 13:37:35;;;;;;;0.93;0.93;;;10.00;90.70;;;;;;4937167;29;20206;-75
2021/03/22 13:40:03;;;;;;;0.70;0.70;;;10.20;94.10;;;;;;4937008;29;20318;-76
2021/03/22 13:42:30;;;;;;;0.95;0.95;;;10.10;94.00;;;;;;4935854;29;20226;-75
2021/03/22 13:44:57;;;;;;;0.90;0.90;;;;;;;;;;4936324;29;20730;-76
2021/03/22 13:47:25;;;;;;;0.90;0.90;;;9.70;92.70;;;;;;4937876;29;20261;-76
2021/03/22 13:49:52;;;;;;;0.85;0.85;;;9.70;93.10;;;;;;4939642;29;20209;-75
2021/03/22 13:52:20;;;;;;;0.80;0.80;;;9.90;76.20;;;;;;4936542;29;20230;-75
2021/03/22 13:54:47;;;;;;;0.82;0.82;;;10.00;93.70;;;;;;4936443;29;20202;-76
2021/03/22 13:57:14;;;;;;;0.80;0.80;;;9.80;94.10;;;;;;4936681;29;20664;-76
2021/03/22 13:59:41;;;;;;;1.00;1.00;;;10.00;90.90;;;;;;4936512;29;20233;-76
2021/03/22 14:02:11;;;;;;;0.90;0.90;;;9.80;93.00;;;;;;4936590;29;20236;-75
2021/03/22 14:04:41;;;;;;;0.90;0.90;;;10.00;75.40;;;;;;4936505;29;20659;-75
2021/03/22 14:07:08;;;;;;;1.00;1.00;;;10.60;84.70;;;;;;4936575;29;20210;-76
2021/03/22 14:09:36;;;;;;;0.95;0.95;;;;;;;;;;4936391;29;20208;-76
2021/03/22 14:12:03;;;;;;;0.98;0.98;;;10.90;92.70;;;;;;4936232;29;20248;-76
2021/03/22 14:14:31;;;;;;;0.70;0.70;;;10.80;92.60;;;;;;4936160;29;20206;-76
2021/03/22 14:16:58;;;;;;;0.73;0.73;;;;;;;;;;4935943;29;20272;-75
2021/03/22 14:19:25;;;;;;;1.00;1.00;;;10.70;92.50;;;;;;4936049;29;20317;-76
2021/03/22 14:21:53;;;;;;;0.95;0.95;;;10.20;91.30;;;;;;4936150;29;20270;-76
2021/03/22 14:24:20;;;;;;;1.00;1.00;;;10.10;76.20;;;;;;4936134;29;20214;-75
2021/03/22 14:26:47;;;;;;;0.88;0.88;;;10.20;92.60;;;;;;4935835;29;20265;-76
2021/03/22 14:29:14;;;;;;;0.75;0.75;;;;;;;;;;4935883;29;20217;-74
2021/03/22 14:31:41;;;;;;;0.98;0.98;;;9.60;93.00;;;;;;4935964;29;20355;-76
2021/03/22 14:34:08;;;;;;;0.90;0.90;;;9.70;91.50;;;;;;4935911;29;20301;-75
2021/03/22 14:36:36;;;;;;;0.90;0.90;;;9.60;92.60;;;;;;4935683;29;20559;-75
2021/03/22 14:39:05;;;;;;;0.90;0.90;;;9.80;91.80;;;;;;4935826;29;20234;-76
2021/03/22 14:41:33;;;;;;;0.90;0.90;;;9.80;73.10;;;;;;4935732;29;20255;-76
2021/03/22 14:44:01;;;;;;;1.00;1.00;;;10.00;73.80;;;;;;4935681;29;20206;-75
2021/03/22 14:46:28;;;;;;;1.00;1.00;;;10.10;91.80;;;;;;4935703;29;20261;-76
2021/03/22 14:48:55;;;;;;;1.02;1.02;;;10.10;92.40;;;;;;4935692;29;20671;-75
2021/03/22 14:51:23;;;;;;;0.80;0.80;;;10.20;91.60;;;;;;4935580;29;20643;-76
2021/03/22 14:53:50;;;;;;;1.00;1.00;;;9.70;92.30;;;;;;4935376;29;20214;-76
2021/03/22 14:56:33;;;;;;;0.90;0.90;;;9.70;78.90;;;;;;4935512;29;20554;-76
2021/03/22 14:59:06;;;;;;;1.00;1.00;;;9.80;92.10;;;;;;4935394;29;20212;-75
2021/03/22 15:01:33;;;;;;;0.80;0.80;;;9.50;85.20;;;;;;4935325;29;20659;-75
2021/03/22 15:04:00;;;;;;;0.90;0.90;;;9.30;92.60;;;;;;4935509;29;20263;-76
2021/03/22 15:06:27;;;;;;;1.20;1.20;;;;;;;;;;4935300;29;20210;-76
2021/03/22 15:08:54;;;;;;;0.90;0.90;;;9.70;93.20;;;;;;4935828;29;20554;-76
2021/03/22 15:11:21;;;;;;;0.90;0.90;;;9.60;89.20;;;;;;4935352;29;20230;-75
2021/03/22 15:13:49;;;;;;;1.00;1.00;;;9.80;92.70;;;;;;4935341;29;20206;-76
2021/03/22 15:16:16;;;;;;;1.00;1.00;;;;;;;;;;4935080;29;20257;-75
2021/03/22 15:18:43;;;;;;;0.90;0.90;;;;;;;;;;4935258;29;20237;-76
2021/03/22 15:21:10;;;;;;;0.70;0.70;;;9.40;92.80;;;;;;4934957;29;20281;-76
2021/03/22 15:23:37;;;;;;;0.70;0.70;;;9.60;88.70;;;;;;4935068;29;20213;-75
2021/03/22 15:26:05;;;;;;;0.90;0.90;;;9.50;92.50;;;;;;4934971;29;20206;-75
2021/03/22 15:28:34;;;;;;;1.05;1.05;;;9.40;87.80;;;;;;4935205;29;20213;-75
2021/03/22 15:31:05;;;;;;;0.90;0.90;;;9.30;72.80;;;;;;4935056;29;20248;-75
2021/03/22 15:33:36;;;;;;;1.00;1.00;;;9.40;91.90;;;;;;4934997;29;20206;-75
2021/03/22 15:36:07;;;;;;;1.20;1.20;;;9.60;73.40;;;;;;4934685;29;20277;-75
2021/03/22 15:38:34;;;;;;;1.10;1.10;;;9.60;73.90;;;;;;4935300;29;20214;-75
2021/03/22 15:41:02;;;;;;;1.10;1.10;;;9.50;91.70;;;;;;4935339;29;20245;-76
2021/03/22 15:43:32;;;;;;;0.88;0.88;;;9.40;89.60;;;;;;4934796;29;20726;-75
2021/03/22 15:46:00;;;;;;;1.00;1.00;;;9.50;92.20;;;;;;4934779;29;20245;-75
2021/03/22 15:48:28;;;;;;;0.80;0.80;;;9.70;88.70;;;;;;4934659;29;20623;-76
2021/03/22 15:50:55;;;;;;;1.10;1.10;;;9.70;83.00;;;;;;4935065;29;20226;-75
2021/03/22 15:53:22;;;;;;;0.90;0.90;;;9.60;80.10;;;;;;4935107;29;20241;-75
2021/03/22 15:55:49;;;;;;;0.80;0.80;;;9.70;92.70;;;;;;4934679;29;20265;-75
2021/03/22 15:58:16;;;;;;;0.98;0.98;;;9.60;92.90;;;;;;4934775;29;20206;-75
2021/03/22 16:00:42;;;;;;;0.98;0.98;;;9.80;92.50;;;;;;4934296;29;20770;-74
2021/03/22 16:03:12;;;;;;;0.90;0.90;;;9.70;92.40;;;;;;4934613;29;20201;-75
2021/03/22 16:05:42;;;;;;;1.00;1.00;;;9.90;92.50;;;;;;4934816;29;20216;-75
2021/03/22 16:08:11;;;;;;;0.90;0.90;;;9.80;84.90;;;;;;4939209;29;20209;-74
2021/03/22 16:10:39;;;;;;;0.90;0.90;;;10.00;91.90;;;;;;4939088;29;20578;-74
2021/03/22 16:13:08;;;;;;;0.80;0.80;;;9.90;72.90;;;;;;4939102;29;20206;-74
2021/03/22 16:15:36;;;;;;;0.90;0.90;;;10.00;87.50;;;;;;4938237;29;20201;-74
2021/03/22 16:18:04;;;;;;;0.90;0.90;;;9.80;93.30;;;;;;4938993;29;20217;-75
2021/03/22 16:20:33;;;;;;;0.80;0.80;;;10.10;93.60;;;;;;4938485;29;20317;-77
2021/03/22 16:23:02;;;;;;;0.90;0.90;;;10.00;77.20;;;;;;4938645;29;20206;-73
2021/03/22 16:25:31;;;;;;;1.00;1.00;;;9.70;90.10;;;;;;4938442;29;20367;-78
2021/03/22 16:27:59;;;;;;;0.95;0.95;;;9.70;95.20;;;;;;4938348;29;20210;-75
2021/03/22 16:30:28;;;;;;;0.90;0.90;;;9.70;96.20;;;;;;4938374;29;20198;-75
2021/03/22 16:32:56;;;;;;;0.90;0.90;;;9.20;95.30;;;;;;4938271;29;20205;-74
2021/03/22 16:35:26;;;;;;;1.00;1.00;;;9.50;92.20;;;;;;4937985;29;20212;-74
2021/03/22 16:37:54;;;;;;;0.90;0.90;;;9.20;92.90;;;;;;4938639;29;20225;-76
2021/03/22 16:40:24;;;;;;;0.90;0.90;;;9.30;95.20;;;;;;4937857;29;20273;-75
2021/03/22 16:42:50;;;;;;;0.90;0.90;;;9.20;98.20;;;;;;4938255;29;20245;-76
2021/03/22 16:45:18;;;;;;;1.20;1.20;;;9.00;94.40;;;;;;4937798;29;20206;-76
2021/03/22 16:47:46;;;;;;;0.90;0.90;;;8.90;93.80;;;;;;4937157;29;20296;-76
2021/03/22 16:50:14;;;;;;;0.90;0.90;;;9.00;98.60;;;;;;4937774;29;20209;-76
2021/03/22 16:52:41;;;;;;;0.90;0.90;;;8.80;98.40;;;;;;4937378;29;20205;-76
2021/03/22 16:55:11;;;;;;;1.00;1.00;;;9.00;98.50;;;;;;4937183;29;20213;-74
2021/03/22 16:57:38;;;;;;;0.90;0.90;;;8.90;92.40;;;;;;4938396;29;20261;-79
2021/03/22 17:00:07;;;;;;;0.90;0.90;;;8.90;88.20;;;;;;4940265;29;20221;-75
2021/03/22 17:02:34;;;;;;;0.90;0.90;;;;;;;;;;4941314;29;20229;-74
2021/03/22 17:05:01;;;;;;;0.90;0.90;;;8.90;96.60;;;;;;4932750;29;20209;-80
2021/03/22 17:07:28;;;;;;;0.90;0.90;;;8.80;91.60;;;;;;4923276;29;20211;-75
2021/03/22 17:09:58;;;;;;;0.90;0.90;;;;;;;;;;4922591;29;20202;-77
2021/03/22 17:12:25;;;;;;;0.98;0.98;;;8.60;98.40;;;;;;4920206;29;20238;-79
2021/03/22 17:14:53;;;;;;;1.00;1.00;;;8.80;90.20;;;;;;4919003;29;20277;-78
2021/03/22 17:17:21;;;;;;;0.88;0.88;;;;;;;;;;4919564;29;20210;-76
2021/03/22 17:19:50;;;;;;;0.80;0.80;;;8.70;91.00;;;;;;4918813;29;20206;-78
2021/03/22 17:22:17;;;;;;;0.93;0.93;;;8.70;91.10;;;;;;4919508;29;20286;-78
2021/03/22 17:24:44;;;;;;;0.90;0.90;;;;;;;;;;4919512;29;20206;-77
2021/03/22 17:27:12;;;;;;;1.00;1.00;;;;;;;;;;4920138;29;20207;-76
2021/03/22 17:29:38;;;;;;;0.95;0.95;;;8.60;93.90;;;;;;4920348;29;20206;-74
2021/03/22 17:32:07;;;;;;;1.00;1.00;;;9.00;99.90;;;;;;4931462;29;20711;-74
2021/03/22 17:34:35;;;;;;;1.00;1.00;;;;;;;;;;4935965;29;20302;-74
2021/03/22 17:37:02;;;;;;;0.90;0.90;;;;;;;;;;4936118;29;20556;-74
2021/03/22 17:39:29;;;;;;;1.00;1.00;;;8.20;96.70;;;;;;4936258;29;20210;-74
2021/03/22 17:42:06;;;;;;;0.90;0.90;;;8.20;93.10;;;;;;4936849;29;20228;-74
2021/03/22 17:44:33;;;;;;;0.88;0.88;;;8.10;99.90;;;;;;4936593;29;20265;-74
2021/03/22 17:47:00;;;;;;;0.90;0.90;;;8.20;99.90;;;;;;4936034;29;20213;-75
2021/03/22 17:49:28;;;;;;;0.90;0.90;;;8.10;99.90;;;;;;4936444;29;20217;-75
2021/03/22 17:51:55;;;;;;;1.08;1.08;;;;;;;;;;4935769;29;20364;-75
2021/03/22 17:54:23;;;;;;;0.98;0.98;;;;;;;;;;4934964;29;20252;-75
2021/03/22 17:56:50;;;;;;;1.05;1.05;;;7.90;96.30;;;;;;4936204;29;20270;-75
2021/03/22 17:59:17;;;;;;;1.10;1.10;;;;;;;;;;4936085;29;20256;-75
2021/03/22 18:01:44;;;;;;;1.00;1.00;;;8.00;99.90;;;;;;4935242;29;20281;-76
2021/03/22 18:04:12;;;;;;;0.90;0.90;;;8.30;99.40;;;;;;4936226;29;20214;-76
2021/03/22 18:06:40;;;;;;;1.00;1.00;;;8.10;96.00;;;;;;4935289;29;20297;-75
2021/03/22 18:09:08;;;;;;;1.00;1.00;;;;;;;;;;4934994;29;20202;-77
2021/03/22 18:11:35;;;;;;;1.00;1.00;;;8.20;99.90;;;;;;4935636;29;20234;-75
2021/03/22 18:14:04;;;;;;;1.00;1.00;;;7.90;96.20;;;;;;4935597;29;20634;-76
2021/03/22 18:16:31;;;;;;;0.98;0.98;;;8.10;99.90;;;;;;4935134;29;20210;-74
2021/03/22 18:18:58;;;;;;;1.08;1.08;;;8.20;99.90;;;;;;4935843;29;20205;-74
2021/03/22 18:21:25;;;;;;;1.10;1.10;;;8.10;94.40;;;;;;4934572;29;20242;-74
2021/03/22 18:23:53;;;;;;;1.00;1.00;;;8.00;99.90;;;;;;4935082;29;20206;-75
2021/03/22 18:26:20;;;;;;;0.93;0.93;;;7.90;96.50;;;;;;4935231;29;20289;-75
2021/03/22 18:28:48;;;;;;;0.90;0.90;;;;;;;;;;4934404;29;20210;-75
2021/03/22 18:31:15;;;;;;;1.10;1.10;;;8.20;99.90;;;;;;4934964;29;20722;-76
2021/03/22 18:33:43;;;;;;;0.90;0.90;;;8.50;99.90;;;;;;4935206;29;20577;-75
2021/03/22 18:36:10;;;;;;;1.10;1.10;;;7.90;99.90;;;;;;4934223;29;20686;-75
2021/03/22 18:38:37;;;;;;;1.10;1.10;;;8.00;97.90;;;;;;4934338;29;20524;-76
2021/03/22 18:41:05;;;;;;;0.98;0.98;;;8.00;94.30;;;;;;4934546;29;20707;-76